sensor_id;sensor_type;location;lat;lon;timestamp;pressure;altitude;pressure_sealevel;temperature;humidity
33163;BME280;29282;45.656;11.302;2023-03-22T00:00:48;98326.63;;;18.62;48.76
33163;BME280;29282;45.656;11.302;2023-03-22T00:03:13;98325.00;;;18.61;48.79
33163;BME280;29282;45.656;11.302;2023-03-22T00:05:39;98325.84;;;18.61;48.88
33163;BME280;29282;45.656;11.302;2023-03-22T00:08:05;98322.63;;;18.59;48.75
33163;BME280;29282;45.656;11.302;2023-03-22T00:10:32;98332.78;;;18.59;48.86
33163;BME280;29282;45.656;11.302;2023-03-22T00:12:58;98326.50;;;18.58;48.70
33163;BME280;29282;45.656;11.302;2023-03-22T00:15:24;98335.53;;;18.59;48.82
33163;BME280;29282;45.656;11.302;2023-03-22T00:17:50;98330.38;;;18.57;48.84
33163;BME280;29282;45.656;11.302;2023-03-22T00:20:16;98330.38;;;18.57;48.87
33163;BME280;29282;45.656;11.302;2023-03-22T00:22:45;98327.63;;;18.57;48.68
33163;BME280;29282;45.656;11.302;2023-03-22T00:25:11;98325.22;;;18.55;48.64
33163;BME280;29282;45.656;11.302;2023-03-22T00:27:36;98327.97;;;18.55;48.72
33163;BME280;29282;45.656;11.302;2023-03-22T00:30:03;98327.16;;;18.55;48.89
33163;BME280;29282;45.656;11.302;2023-03-22T00:32:33;98325.53;;;18.54;48.69
33163;BME280;29282;45.656;11.302;2023-03-22T00:35:00;98329.13;;;18.54;48.79
33163;BME280;29282;45.656;11.302;2023-03-22T00:37:26;98324.75;;;18.53;48.65
33163;BME280;29282;45.656;11.302;2023-03-22T00:39:53;98329.44;;;18.53;48.80
33163;BME280;29282;45.656;11.302;2023-03-22T00:42:18;98319.59;;;18.52;48.65
33163;BME280;29282;45.656;11.302;2023-03-22T00:44:44;98318.47;;;18.53;48.65
33163;BME280;29282;45.656;11.302;2023-03-22T00:47:09;98310.56;;;18.51;48.60
33163;BME280;29282;45.656;11.302;2023-03-22T00:49:35;98312.19;;;18.52;48.45
33163;BME280;29282;45.656;11.302;2023-03-22T00:52:02;98306.22;;;18.50;48.70
33163;BME280;29282;45.656;11.302;2023-03-22T00:54:27;98308.94;;;18.50;48.53
33163;BME280;29282;45.656;11.302;2023-03-22T00:56:53;98301.06;;;18.49;48.54
33163;BME280;29282;45.656;11.302;2023-03-22T00:59:18;98304.59;;;18.49;48.57
33163;BME280;29282;45.656;11.302;2023-03-22T01:01:44;98299.91;;;18.50;48.57
33163;BME280;29282;45.656;11.302;2023-03-22T01:04:10;98293.97;;;18.48;48.64
33163;BME280;29282;45.656;11.302;2023-03-22T01:06:42;98303.34;;;18.47;48.62
33163;BME280;29282;45.656;11.302;2023-03-22T01:09:08;98293.97;;;18.48;48.56
33163;BME280;29282;45.656;11.302;2023-03-22T01:11:39;98297.84;;;18.47;48.42
33163;BME280;29282;45.656;11.302;2023-03-22T01:14:04;98305.28;;;18.46;48.47
33163;BME280;29282;45.656;11.302;2023-03-22T01:16:30;98302.88;;;18.45;48.41
33163;BME280;29282;45.656;11.302;2023-03-22T01:18:55;98292.72;;;18.45;48.46
33163;BME280;29282;45.656;11.302;2023-03-22T01:21:21;98298.19;;;18.45;48.52
33163;BME280;29282;45.656;11.302;2023-03-22T01:23:46;98299.34;;;18.44;48.57
33163;BME280;29282;45.656;11.302;2023-03-22T01:26:12;98296.59;;;18.44;48.45
33163;BME280;29282;45.656;11.302;2023-03-22T01:28:37;98298.50;;;18.44;48.41
33163;BME280;29282;45.656;11.302;2023-03-22T01:31:04;98297.72;;;18.43;48.54
33163;BME280;29282;45.656;11.302;2023-03-22T01:33:30;98294.16;;;18.43;48.38
33163;BME280;29282;45.656;11.302;2023-03-22T01:35:56;98292.56;;;18.42;48.35
33163;BME280;29282;45.656;11.302;2023-03-22T01:38:21;98291.78;;;18.41;48.44
33163;BME280;29282;45.656;11.302;2023-03-22T01:40:47;98300.00;;;18.41;48.37
33163;BME280;29282;45.656;11.302;2023-03-22T01:43:14;98300.81;;;18.42;48.33
33163;BME280;29282;45.656;11.302;2023-03-22T01:45:47;98301.91;;;18.41;48.57
33163;BME280;29282;45.656;11.302;2023-03-22T01:48:36;98300.31;;;18.40;48.48
33163;BME280;29282;45.656;11.302;2023-03-22T01:53:35;98285.00;;;18.39;48.31
33163;BME280;29282;45.656;11.302;2023-03-22T01:56:03;98285.81;;;18.39;48.27
33163;BME280;29282;45.656;11.302;2023-03-22T01:58:28;98294.38;;;18.38;48.30
33163;BME280;29282;45.656;11.302;2023-03-22T02:00:56;98293.56;;;18.37;48.31
33163;BME280;29282;45.656;11.302;2023-03-22T02:03:35;98291.66;;;18.38;48.44
33163;BME280;29282;45.656;11.302;2023-03-22T02:06:02;98287.28;;;18.37;48.30
33163;BME280;29282;45.656;11.302;2023-03-22T02:08:28;98295.50;;;18.37;48.41
33163;BME280;29282;45.656;11.302;2023-03-22T02:10:54;98290.00;;;18.37;48.40
33163;BME280;29282;45.656;11.302;2023-03-22T02:14:21;98283.72;;;18.36;48.30
33163;BME280;29282;45.656;11.302;2023-03-22T02:16:37;98288.41;;;18.36;48.32
33163;BME280;29282;45.656;11.302;2023-03-22T02:21:59;98282.13;;;18.35;48.23
33163;BME280;29282;45.656;11.302;2023-03-22T02:41:50;98281.66;;;18.33;48.25
33163;BME280;29282;45.656;11.302;2023-03-22T02:44:40;98280.84;;;18.33;48.20
33163;BME280;29282;45.656;11.302;2023-03-22T02:52:32;98284.75;;;18.31;48.18
33163;BME280;29282;45.656;11.302;2023-03-22T02:57:50;98279.56;;;18.30;48.03
33163;BME280;29282;45.656;11.302;2023-03-22T03:00:18;98284.75;;;18.31;47.85
33163;BME280;29282;45.656;11.302;2023-03-22T03:02:54;98283.94;;;18.31;47.96
33163;BME280;29282;45.656;11.302;2023-03-22T03:05:22;98281.19;;;18.31;48.16
33163;BME280;29282;45.656;11.302;2023-03-22T03:07:54;98291.34;;;18.30;48.06
33163;BME280;29282;45.656;11.302;2023-03-22T03:10:21;98288.59;;;18.30;48.02
33163;BME280;29282;45.656;11.302;2023-03-22T03:12:48;98286.22;;;18.29;48.09
33163;BME280;29282;45.656;11.302;2023-03-22T03:15:19;98290.56;;;18.30;47.97
33163;BME280;29282;45.656;11.302;2023-03-22T03:18:49;98287.00;;;18.29;48.03
33163;BME280;29282;45.656;11.302;2023-03-22T03:23:34;98289.75;;;18.29;48.10
33163;BME280;29282;45.656;11.302;2023-03-22T03:26:23;98288.16;;;18.28;48.06
33163;BME280;29282;45.656;11.302;2023-03-22T03:29:09;98284.94;;;18.26;47.98
33163;BME280;29282;45.656;11.302;2023-03-22T03:34:17;98293.16;;;18.26;47.90
33163;BME280;29282;45.656;11.302;2023-03-22T03:36:58;98292.00;;;18.27;48.06
33163;BME280;29282;45.656;11.302;2023-03-22T03:39:29;98292.34;;;18.26;47.90
33163;BME280;29282;45.656;11.302;2023-03-22T03:41:57;98294.31;;;18.25;48.02
33163;BME280;29282;45.656;11.302;2023-03-22T03:44:25;98301.38;;;18.26;47.90
33163;BME280;29282;45.656;11.302;2023-03-22T03:46:51;98295.41;;;18.24;47.93
33163;BME280;29282;45.656;11.302;2023-03-22T03:49:21;98297.84;;;18.26;47.86
33163;BME280;29282;45.656;11.302;2023-03-22T03:51:50;98298.16;;;18.24;48.02
33163;BME280;29282;45.656;11.302;2023-03-22T03:54:16;98301.72;;;18.25;47.86
33163;BME280;29282;45.656;11.302;2023-03-22T03:56:42;98299.31;;;18.23;47.82
33163;BME280;29282;45.656;11.302;2023-03-22T03:59:07;98298.16;;;18.24;48.09
33163;BME280;29282;45.656;11.302;2023-03-22T04:01:33;98309.13;;;18.24;47.80
33163;BME280;29282;45.656;11.302;2023-03-22T04:04:00;98300.09;;;18.24;47.99
33163;BME280;29282;45.656;11.302;2023-03-22T04:06:25;98299.66;;;18.22;47.95
33163;BME280;29282;45.656;11.302;2023-03-22T04:08:51;98301.25;;;18.23;47.82
33163;BME280;29282;45.656;11.302;2023-03-22T04:11:19;98298.50;;;18.23;48.01
33163;BME280;29282;45.656;11.302;2023-03-22T04:13:44;98296.13;;;18.21;47.78
33163;BME280;29282;45.656;11.302;2023-03-22T04:16:10;98301.25;;;18.23;47.78
33163;BME280;29282;45.656;11.302;2023-03-22T04:18:37;98303.19;;;18.22;47.82
33163;BME280;29282;45.656;11.302;2023-03-22T04:21:03;98304.34;;;18.21;47.76
33163;BME280;29282;45.656;11.302;2023-03-22T04:23:29;98295.28;;;18.21;47.88
33163;BME280;29282;45.656;11.302;2023-03-22T04:25:57;98301.59;;;18.21;47.86
33163;BME280;29282;45.656;11.302;2023-03-22T04:28:24;98296.44;;;18.20;47.73
33163;BME280;29282;45.656;11.302;2023-03-22T04:30:50;98298.38;;;18.19;47.74
33163;BME280;29282;45.656;11.302;2023-03-22T04:33:17;98293.69;;;18.20;47.74
33163;BME280;29282;45.656;11.302;2023-03-22T04:35:43;98301.91;;;18.20;47.91
33163;BME280;29282;45.656;11.302;2023-03-22T04:38:10;98297.22;;;18.20;47.86
33163;BME280;29282;45.656;11.302;2023-03-22T04:40:36;98295.63;;;18.19;47.74
33163;BME280;29282;45.656;11.302;2023-03-22T04:43:03;98298.38;;;18.19;47.86
33163;BME280;29282;45.656;11.302;2023-03-22T04:45:29;98291.28;;;18.18;47.88
33163;BME280;29282;45.656;11.302;2023-03-22T04:47:57;98285.81;;;18.18;47.67
33163;BME280;29282;45.656;11.302;2023-03-22T04:50:23;98286.59;;;18.19;47.83
33163;BME280;29282;45.656;11.302;2023-03-22T04:52:49;98292.88;;;18.19;47.53
33163;BME280;29282;45.656;11.302;2023-03-22T04:55:14;98290.94;;;18.20;47.79
33163;BME280;29282;45.656;11.302;2023-03-22T04:57:40;98289.00;;;18.20;47.60
33163;BME280;29282;45.656;11.302;2023-03-22T05:00:06;98296.13;;;18.21;47.64
33163;BME280;29282;45.656;11.302;2023-03-22T05:02:33;98292.53;;;18.21;47.73
33163;BME280;29282;45.656;11.302;2023-03-22T05:04:58;98294.47;;;18.20;47.65
33163;BME280;29282;45.656;11.302;2023-03-22T05:07:24;98294.47;;;18.20;47.86
33163;BME280;29282;45.656;11.302;2023-03-22T05:09:50;98294.97;;;18.22;47.97
33163;BME280;29282;45.656;11.302;2023-03-22T05:12:15;98298.50;;;18.23;47.99
33163;BME280;29282;45.656;11.302;2023-03-22T05:14:41;98301.59;;;18.21;48.09
33163;BME280;29282;45.656;11.302;2023-03-22T05:17:07;98301.59;;;18.21;48.07
33163;BME280;29282;45.656;11.302;2023-03-22T05:19:32;98295.28;;;18.21;48.37
33163;BME280;29282;45.656;11.302;2023-03-22T05:21:58;98300.75;;;18.21;48.27
33163;BME280;29282;45.656;11.302;2023-03-22T05:24:29;98293.38;;;18.21;48.49
33163;BME280;29282;45.656;11.302;2023-03-22T05:26:55;98298.84;;;18.21;48.49
33163;BME280;29282;45.656;11.302;2023-03-22T05:29:20;98292.53;;;18.21;48.41
33163;BME280;29282;45.656;11.302;2023-03-22T05:31:47;98292.53;;;18.21;48.52
33163;BME280;29282;45.656;11.302;2023-03-22T05:34:12;98295.63;;;18.19;48.72
33163;BME280;29282;45.656;11.302;2023-03-22T05:36:38;98295.63;;;18.19;48.42
33163;BME280;29282;45.656;11.302;2023-03-22T05:39:04;98302.25;;;18.18;48.53
33163;BME280;29282;45.656;11.302;2023-03-22T05:41:29;98303.06;;;18.19;48.63
33163;BME280;29282;45.656;11.302;2023-03-22T05:43:58;98307.75;;;18.18;48.59
33163;BME280;29282;45.656;11.302;2023-03-22T05:46:24;98307.25;;;18.16;48.55
33163;BME280;29282;45.656;11.302;2023-03-22T05:48:49;98306.47;;;18.16;48.46
33163;BME280;29282;45.656;11.302;2023-03-22T05:51:15;98309.19;;;18.16;48.53
33163;BME280;29282;45.656;11.302;2023-03-22T05:53:47;98313.09;;;18.15;48.73
33163;BME280;29282;45.656;11.302;2023-03-22T05:56:13;98320.16;;;18.16;48.49
33163;BME280;29282;45.656;11.302;2023-03-22T05:58:40;98314.69;;;18.16;48.63
33163;BME280;29282;45.656;11.302;2023-03-22T06:01:08;98308.41;;;18.15;48.50
33163;BME280;29282;45.656;11.302;2023-03-22T06:03:36;98312.75;;;18.16;48.61
33163;BME280;29282;45.656;11.302;2023-03-22T06:06:02;98316.63;;;18.15;48.56
33163;BME280;29282;45.656;11.302;2023-03-22T06:08:32;98314.69;;;18.16;48.62
33163;BME280;29282;45.656;11.302;2023-03-22T06:10:58;98319.38;;;18.15;48.62
33163;BME280;29282;45.656;11.302;2023-03-22T06:13:24;98319.38;;;18.15;48.69
33163;BME280;29282;45.656;11.302;2023-03-22T06:15:49;98317.44;;;18.16;48.59
33163;BME280;29282;45.656;11.302;2023-03-22T06:18:15;98319.38;;;18.15;48.46
33163;BME280;29282;45.656;11.302;2023-03-22T06:20:41;98313.09;;;18.15;48.57
33163;BME280;29282;45.656;11.302;2023-03-22T06:23:06;98317.75;;;18.14;48.31
33163;BME280;29282;45.656;11.302;2023-03-22T06:25:32;98318.56;;;18.15;48.51
33163;BME280;29282;45.656;11.302;2023-03-22T06:27:57;98322.13;;;18.15;48.33
33163;BME280;29282;45.656;11.302;2023-03-22T06:30:23;98320.50;;;18.14;48.52
33163;BME280;29282;45.656;11.302;2023-03-22T06:32:49;98325.97;;;18.14;48.60
33163;BME280;29282;45.656;11.302;2023-03-22T06:35:15;98323.22;;;18.14;48.26
33163;BME280;29282;45.656;11.302;2023-03-22T06:37:40;98322.44;;;18.14;48.39
33163;BME280;29282;45.656;11.302;2023-03-22T06:40:07;98325.97;;;18.14;48.31
33163;BME280;29282;45.656;11.302;2023-03-22T06:42:33;98332.28;;;18.15;48.35
33163;BME280;29282;45.656;11.302;2023-03-22T06:44:58;98331.44;;;18.14;48.38
33163;BME280;29282;45.656;11.302;2023-03-22T06:47:24;98327.91;;;18.14;48.24
33163;BME280;29282;45.656;11.302;2023-03-22T06:49:50;98325.97;;;18.14;48.43
33163;BME280;29282;45.656;11.302;2023-03-22T06:52:16;98327.59;;;18.15;48.39
33163;BME280;29282;45.656;11.302;2023-03-22T06:54:41;98329.84;;;18.13;48.43
33163;BME280;29282;45.656;11.302;2023-03-22T06:57:07;98335.34;;;18.13;48.44
33163;BME280;29282;45.656;11.302;2023-03-22T06:59:32;98336.94;;;18.14;48.26
33163;BME280;29282;45.656;11.302;2023-03-22T07:01:58;98336.94;;;18.14;48.27
33163;BME280;29282;45.656;11.302;2023-03-22T07:04:23;98335.03;;;18.15;48.32
33163;BME280;29282;45.656;11.302;2023-03-22T07:06:50;98336.63;;;18.16;48.44
33163;BME280;29282;45.656;11.302;2023-03-22T07:09:17;98340.16;;;18.16;48.35
33163;BME280;29282;45.656;11.302;2023-03-22T07:11:42;98337.41;;;18.16;48.28
33163;BME280;29282;45.656;11.302;2023-03-22T07:14:08;98334.69;;;18.16;48.41
33163;BME280;29282;45.656;11.302;2023-03-22T07:16:33;98340.16;;;18.16;48.47
33163;BME280;29282;45.656;11.302;2023-03-22T07:18:59;98340.97;;;18.17;48.52
33163;BME280;29282;45.656;11.302;2023-03-22T07:21:25;98341.31;;;18.15;48.61
33163;BME280;29282;45.656;11.302;2023-03-22T07:23:50;98340.50;;;18.15;48.38
33163;BME280;29282;45.656;11.302;2023-03-22T07:26:16;98338.88;;;18.14;48.54
33163;BME280;29282;45.656;11.302;2023-03-22T07:28:41;98339.69;;;18.14;48.44
33163;BME280;29282;45.656;11.302;2023-03-22T07:31:10;98341.97;;;18.12;48.63
33163;BME280;29282;45.656;11.302;2023-03-22T07:33:37;98338.56;;;18.15;48.46
33163;BME280;29282;45.656;11.302;2023-03-22T07:36:04;98342.25;;;18.19;48.49
33163;BME280;29282;45.656;11.302;2023-03-22T07:38:30;98345.00;;;18.19;48.53
33163;BME280;29282;45.656;11.302;2023-03-22T07:40:56;98340.66;;;18.18;48.63
33163;BME280;29282;45.656;11.302;2023-03-22T07:43:22;98344.19;;;18.19;48.59
33163;BME280;29282;45.656;11.302;2023-03-22T07:45:49;98344.50;;;18.17;48.48
33163;BME280;29282;45.656;11.302;2023-03-22T07:48:15;98344.50;;;18.17;48.41
33163;BME280;29282;45.656;11.302;2023-03-22T07:50:40;98349.53;;;18.15;48.51
33163;BME280;29282;45.656;11.302;2023-03-22T07:53:07;98348.38;;;18.16;48.52
33163;BME280;29282;45.656;11.302;2023-03-22T07:55:33;98352.28;;;18.15;48.61
33163;BME280;29282;45.656;11.302;2023-03-22T07:57:59;98351.13;;;18.16;48.45
33163;BME280;29282;45.656;11.302;2023-03-22T08:00:25;98355.03;;;18.15;48.59
33163;BME280;29282;45.656;11.302;2023-03-22T08:02:51;98357.75;;;18.15;48.44
33163;BME280;29282;45.656;11.302;2023-03-22T08:05:17;98355.03;;;18.15;48.88
33163;BME280;29282;45.656;11.302;2023-03-22T08:07:42;98352.28;;;18.15;48.50
33163;BME280;29282;45.656;11.302;2023-03-22T08:10:08;98357.75;;;18.15;48.62
33163;BME280;29282;45.656;11.302;2023-03-22T08:12:34;98355.81;;;18.16;48.67
33163;BME280;29282;45.656;11.302;2023-03-22T08:14:59;98354.69;;;18.17;48.63
33163;BME280;29282;45.656;11.302;2023-03-22T08:17:25;98352.28;;;18.15;48.40
33163;BME280;29282;45.656;11.302;2023-03-22T08:19:52;98352.28;;;18.15;48.31
33163;BME280;29282;45.656;11.302;2023-03-22T08:22:20;98355.81;;;18.16;48.38
33163;BME280;29282;45.656;11.302;2023-03-22T08:24:49;98356.63;;;18.16;48.44
33163;BME280;29282;45.656;11.302;2023-03-22T08:27:15;98359.34;;;18.16;48.45
33163;BME280;29282;45.656;11.302;2023-03-22T08:29:41;98365.31;;;18.18;48.28
33163;BME280;29282;45.656;11.302;2023-03-22T08:32:07;98357.41;;;18.17;48.33
33163;BME280;29282;45.656;11.302;2023-03-22T08:34:37;98359.34;;;18.16;48.38
33163;BME280;29282;45.656;11.302;2023-03-22T08:37:04;98369.19;;;18.17;48.51
33163;BME280;29282;45.656;11.302;2023-03-22T08:39:30;98366.00;;;18.15;48.46
33163;BME280;29282;45.656;11.302;2023-03-22T08:41:56;98364.03;;;18.16;48.33
33163;BME280;29282;45.656;11.302;2023-03-22T08:44:21;98359.34;;;18.16;48.37
33163;BME280;29282;45.656;11.302;2023-03-22T08:46:47;98367.59;;;18.16;48.52
33163;BME280;29282;45.656;11.302;2023-03-22T08:49:12;98355.81;;;18.16;48.43
33163;BME280;29282;45.656;11.302;2023-03-22T08:51:39;98361.31;;;18.16;48.38
33163;BME280;29282;45.656;11.302;2023-03-22T08:54:05;98359.69;;;18.15;48.48
33163;BME280;29282;45.656;11.302;2023-03-22T08:56:31;98357.75;;;18.15;48.40
33163;BME280;29282;45.656;11.302;2023-03-22T08:59:02;98357.75;;;18.15;48.23
33163;BME280;29282;45.656;11.302;2023-03-22T09:01:28;98356.63;;;18.16;48.43
33163;BME280;29282;45.656;11.302;2023-03-22T09:03:53;98358.56;;;18.16;48.29
33163;BME280;29282;45.656;11.302;2023-03-22T09:06:19;98357.41;;;18.17;48.45
33163;BME280;29282;45.656;11.302;2023-03-22T09:08:45;98353.88;;;18.16;48.24
33163;BME280;29282;45.656;11.302;2023-03-22T09:11:11;98352.72;;;18.17;48.32
33163;BME280;29282;45.656;11.302;2023-03-22T09:13:37;98354.69;;;18.17;48.32
33163;BME280;29282;45.656;11.302;2023-03-22T09:16:04;98350.34;;;18.16;48.43
33163;BME280;29282;45.656;11.302;2023-03-22T09:18:32;98350.00;;;18.17;48.17
33163;BME280;29282;45.656;11.302;2023-03-22T09:20:58;98351.13;;;18.16;48.43
33163;BME280;29282;45.656;11.302;2023-03-22T09:23:23;98354.69;;;18.17;48.42
33163;BME280;29282;45.656;11.302;2023-03-22T09:25:49;98356.63;;;18.16;48.35
33163;BME280;29282;45.656;11.302;2023-03-22T09:28:15;98356.63;;;18.16;48.20
33163;BME280;29282;45.656;11.302;2023-03-22T09:30:41;98354.69;;;18.17;48.22
33163;BME280;29282;45.656;11.302;2023-03-22T09:33:07;98351.13;;;18.16;48.18
33163;BME280;29282;45.656;11.302;2023-03-22T09:35:33;98349.19;;;18.17;48.17
33163;BME280;29282;45.656;11.302;2023-03-22T09:37:59;98354.34;;;18.18;48.28
33163;BME280;29282;45.656;11.302;2023-03-22T09:40:31;98348.03;;;18.18;48.17
33163;BME280;29282;45.656;11.302;2023-03-22T09:43:03;98350.00;;;18.17;48.10
33163;BME280;29282;45.656;11.302;2023-03-22T09:45:39;98345.31;;;18.18;48.08
33163;BME280;29282;45.656;11.302;2023-03-22T09:48:38;98348.88;;;18.18;48.20
33163;BME280;29282;45.656;11.302;2023-03-22T09:51:16;98355.47;;;18.17;48.21
33163;BME280;29282;45.656;11.302;2023-03-22T09:53:46;98357.09;;;18.18;48.08
33163;BME280;29282;45.656;11.302;2023-03-22T10:02:26;98344.19;;;18.19;48.19
33163;BME280;29282;45.656;11.302;2023-03-22T10:10:41;98345.00;;;18.19;48.38
33163;BME280;29282;45.656;11.302;2023-03-22T10:15:56;98338.72;;;18.19;48.09
33163;BME280;29282;45.656;11.302;2023-03-22T10:18:35;98334.03;;;18.19;48.09
33163;BME280;29282;45.656;11.302;2023-03-22T10:21:05;98335.97;;;18.19;48.06
33163;BME280;29282;45.656;11.302;2023-03-22T10:23:45;98329.69;;;18.18;48.27
33163;BME280;29282;45.656;11.302;2023-03-22T10:28:47;98335.63;;;18.20;48.23
33163;BME280;29282;45.656;11.302;2023-03-22T10:31:15;98337.56;;;18.20;48.25
33163;BME280;29282;45.656;11.302;2023-03-22T10:36:18;98331.28;;;18.19;48.06
33163;BME280;29282;45.656;11.302;2023-03-22T10:38:48;98332.06;;;18.20;48.01
33163;BME280;29282;45.656;11.302;2023-03-22T10:41:16;98325.78;;;18.19;48.08
33163;BME280;29282;45.656;11.302;2023-03-22T10:43:44;98332.06;;;18.20;48.17
33163;BME280;29282;45.656;11.302;2023-03-22T10:46:18;98319.97;;;18.21;48.01
33163;BME280;29282;45.656;11.302;2023-03-22T10:48:50;98328.19;;;18.21;48.12
33163;BME280;29282;45.656;11.302;2023-03-22T10:51:39;98319.16;;;18.20;48.12
33163;BME280;29282;45.656;11.302;2023-03-22T10:54:05;98319.97;;;18.21;48.17
33163;BME280;29282;45.656;11.302;2023-03-22T10:56:36;98319.97;;;18.21;48.01
33163;BME280;29282;45.656;11.302;2023-03-22T10:59:02;98315.31;;;18.21;48.08
33163;BME280;29282;45.656;11.302;2023-03-22T11:01:30;98315.31;;;18.21;48.14
33163;BME280;29282;45.656;11.302;2023-03-22T11:03:59;98306.72;;;18.23;47.99
33163;BME280;29282;45.656;11.302;2023-03-22T11:06:32;98299.66;;;18.22;48.21
33163;BME280;29282;45.656;11.302;2023-03-22T11:09:07;98308.69;;;18.22;47.99
33163;BME280;29282;45.656;11.302;2023-03-22T11:11:46;98304.00;;;18.23;47.96
33163;BME280;29282;45.656;11.302;2023-03-22T11:14:16;98308.69;;;18.22;47.96
33163;BME280;29282;45.656;11.302;2023-03-22T11:16:56;98296.13;;;18.21;48.13
33163;BME280;29282;45.656;11.302;2023-03-22T11:19:32;98304.78;;;18.23;48.10
33163;BME280;29282;45.656;11.302;2023-03-22T11:21:59;98298.50;;;18.23;48.04
33163;BME280;29282;45.656;11.302;2023-03-22T11:24:26;98304.00;;;18.23;48.02
33163;BME280;29282;45.656;11.302;2023-03-22T11:27:23;98301.59;;;18.21;48.07
33163;BME280;29282;45.656;11.302;2023-03-22T11:29:52;98290.63;;;18.21;48.06
33163;BME280;29282;45.656;11.302;2023-03-22T11:32:28;98297.22;;;18.20;48.13
33163;BME280;29282;45.656;11.302;2023-03-22T11:34:59;98298.84;;;18.21;48.02
33163;BME280;29282;45.656;11.302;2023-03-22T11:37:25;98292.53;;;18.21;48.08
33163;BME280;29282;45.656;11.302;2023-03-22T11:39:58;98294.47;;;18.20;48.14
33163;BME280;29282;45.656;11.302;2023-03-22T11:42:25;98291.44;;;18.22;48.06
33163;BME280;29282;45.656;11.302;2023-03-22T11:44:51;98289.00;;;18.20;48.20
33163;BME280;29282;45.656;11.302;2023-03-22T11:47:18;98289.78;;;18.21;48.07
33163;BME280;29282;45.656;11.302;2023-03-22T11:49:48;98287.06;;;18.21;48.09
33163;BME280;29282;45.656;11.302;2023-03-22T11:52:19;98285.13;;;18.21;48.25
33163;BME280;29282;45.656;11.302;2023-03-22T11:54:47;98270.59;;;18.21;48.03
33163;BME280;29282;45.656;11.302;2023-03-22T11:57:15;98280.78;;;18.20;48.00
33163;BME280;29282;45.656;11.302;2023-03-22T12:02:28;98267.53;;;18.22;48.06
33163;BME280;29282;45.656;11.302;2023-03-22T12:05:04;98265.13;;;18.21;48.01
33163;BME280;29282;45.656;11.302;2023-03-22T12:07:34;98267.06;;;18.20;47.98
33163;BME280;29282;45.656;11.302;2023-03-22T12:10:10;98260.47;;;18.21;48.13
33163;BME280;29282;45.656;11.302;2023-03-22T12:12:41;98266.75;;;18.22;48.05
33163;BME280;29282;45.656;11.302;2023-03-22T12:15:18;98258.03;;;18.20;48.04
33163;BME280;29282;45.656;11.302;2023-03-22T12:20:48;98254.97;;;18.21;48.01
33163;BME280;29282;45.656;11.302;2023-03-22T12:23:20;98250.59;;;18.20;48.01
33163;BME280;29282;45.656;11.302;2023-03-22T12:25:52;98244.81;;;18.22;48.05
33163;BME280;29282;45.656;11.302;2023-03-22T12:28:24;98249.94;;;18.23;48.01
33163;BME280;29282;45.656;11.302;2023-03-22T12:30:52;98247.69;;;18.25;48.10
33163;BME280;29282;45.656;11.302;2023-03-22T12:33:30;98243.66;;;18.23;47.92
33163;BME280;29282;45.656;11.302;2023-03-22T12:36:03;98241.72;;;18.23;48.04
33163;BME280;29282;45.656;11.302;2023-03-22T12:41:20;98236.22;;;18.23;48.20
33163;BME280;29282;45.656;11.302;2023-03-22T12:43:59;98230.44;;;18.25;48.07
33163;BME280;29282;45.656;11.302;2023-03-22T12:46:30;98227.34;;;18.26;48.17
33163;BME280;29282;45.656;11.302;2023-03-22T12:51:45;98225.06;;;18.28;48.31
33163;BME280;29282;45.656;11.302;2023-03-22T12:54:13;98224.59;;;18.26;48.22
33163;BME280;29282;45.656;11.302;2023-03-22T12:56:42;98223.44;;;18.27;48.11
33163;BME280;29282;45.656;11.302;2023-03-22T12:59:25;98217.97;;;18.27;48.07
33163;BME280;29282;45.656;11.302;2023-03-22T13:01:57;98218.31;;;18.26;48.33
33163;BME280;29282;45.656;11.302;2023-03-22T13:09:44;98210.56;;;18.28;48.36
33163;BME280;29282;45.656;11.302;2023-03-22T13:19:58;98195.56;;;18.25;48.39
33163;BME280;29282;45.656;11.302;2023-03-22T13:22:38;98196.69;;;18.24;48.48
33163;BME280;29282;45.656;11.302;2023-03-22T13:35:53;98184.94;;;18.24;48.56
33163;BME280;29282;45.656;11.302;2023-03-22T13:40:59;98185.28;;;18.22;48.56
33163;BME280;29282;45.656;11.302;2023-03-22T13:43:35;98184.94;;;18.24;48.49
33163;BME280;29282;45.656;11.302;2023-03-22T13:58:59;98173.94;;;18.24;48.46
33163;BME280;29282;45.656;11.302;2023-03-22T14:01:34;98175.91;;;18.23;48.37
33163;BME280;29282;45.656;11.302;2023-03-22T14:04:07;98171.22;;;18.24;48.56
33163;BME280;29282;45.656;11.302;2023-03-22T14:09:30;98171.56;;;18.22;48.53
33163;BME280;29282;45.656;11.302;2023-03-22T14:14:45;98153.97;;;18.23;48.54
33163;BME280;29282;45.656;11.302;2023-03-22T14:17:34;98155.91;;;18.23;48.64
33163;BME280;29282;45.656;11.302;2023-03-22T14:20:04;98156.69;;;18.23;48.59
33163;BME280;29282;45.656;11.302;2023-03-22T14:22:39;98149.63;;;18.22;48.73
33163;BME280;29282;45.656;11.302;2023-03-22T14:25:08;98153.97;;;18.23;48.55
33163;BME280;29282;45.656;11.302;2023-03-22T14:27:40;98141.41;;;18.22;48.51
33163;BME280;29282;45.656;11.302;2023-03-22T14:30:06;98140.25;;;18.23;48.68
33163;BME280;29282;45.656;11.302;2023-03-22T14:32:32;98134.75;;;18.23;48.35
33163;BME280;29282;45.656;11.302;2023-03-22T14:35:26;98132.03;;;18.23;48.43
33163;BME280;29282;45.656;11.302;2023-03-22T14:37:48;98130.44;;;18.22;48.33
33163;BME280;29282;45.656;11.302;2023-03-22T14:40:23;98129.28;;;18.23;48.49
33163;BME280;29282;45.656;11.302;2023-03-22T14:42:52;98128.00;;;18.21;48.52
33163;BME280;29282;45.656;11.302;2023-03-22T14:45:20;98129.94;;;18.20;48.54
33163;BME280;29282;45.656;11.302;2023-03-22T14:47:47;98122.53;;;18.21;48.59
33163;BME280;29282;45.656;11.302;2023-03-22T14:50:15;98118.19;;;18.20;48.56